createdAt,value
2022-08-12T00:02:05.004Z,18.98
2022-08-12T00:07:26.080Z,18.92
2022-08-12T00:12:45.973Z,18.83
2022-08-12T00:18:07.031Z,18.77
2022-08-12T00:23:27.279Z,18.81
2022-08-12T00:28:47.821Z,18.86
2022-08-12T00:34:07.775Z,18.89
2022-08-12T00:39:28.118Z,18.90
2022-08-12T00:44:30.157Z,18.91
2022-08-12T00:49:32.344Z,18.94
2022-08-12T00:55:00.702Z,19.01
2022-08-12T01:00:10.714Z,19.07
2022-08-12T01:05:36.629Z,19.12
2022-08-12T01:11:01.813Z,19.18
2022-08-12T01:16:06.769Z,19.19
2022-08-12T01:21:29.248Z,19.25
2022-08-12T01:26:33.519Z,19.24
2022-08-12T01:31:37.532Z,19.24
2022-08-12T01:36:46.487Z,19.26
2022-08-12T01:41:54.157Z,19.21
2022-08-12T01:47:14.547Z,19.23
2022-08-12T01:52:43.504Z,19.23
2022-08-12T01:58:03.347Z,19.14
2022-08-12T02:03:53.169Z,19.11
2022-08-12T02:09:18.701Z,18.94
2022-08-12T02:14:43.547Z,18.96
2022-08-12T02:20:04.899Z,18.89
2022-08-12T02:25:16.962Z,18.96
2022-08-12T02:30:21.740Z,18.84
2022-08-12T02:35:25.588Z,18.71
2022-08-12T02:40:28.888Z,18.63
2022-08-12T02:45:42.538Z,18.68
2022-08-12T02:50:48.933Z,18.72
2022-08-12T02:55:50.842Z,18.82
2022-08-12T03:00:52.886Z,18.88
2022-08-12T03:06:07.226Z,18.91
2022-08-12T03:11:31.957Z,18.95
2022-08-12T03:16:37.151Z,18.94
2022-08-12T03:21:56.495Z,18.88
2022-08-12T03:27:08.544Z,18.92
2022-08-12T03:32:10.420Z,18.94
2022-08-12T03:37:35.366Z,18.92
2022-08-12T03:43:06.456Z,18.93
2022-08-12T03:48:33.723Z,18.91
2022-08-12T03:53:54.162Z,18.94
2022-08-12T03:59:16.966Z,18.89
2022-08-12T04:04:18.748Z,18.83
2022-08-12T04:09:22.240Z,18.83
2022-08-12T04:14:25.768Z,18.77
2022-08-12T04:19:28.223Z,18.88
2022-08-12T04:24:35.224Z,18.86
2022-08-12T04:30:21.161Z,18.91
2022-08-12T04:35:01.334Z,19.02
2022-08-12T04:40:04.130Z,19.10
2022-08-12T04:45:07.673Z,19.23
2022-08-12T04:50:34.579Z,19.28
2022-08-12T04:55:31.819Z,19.34
2022-08-12T05:00:36.526Z,19.24
2022-08-12T05:05:40.718Z,19.09
2022-08-12T05:10:47.056Z,19.18
2022-08-12T05:16:05.179Z,19.34
2022-08-12T05:21:10.799Z,19.52
2022-08-12T05:26:12.367Z,19.80
2022-08-12T05:31:13.980Z,19.88
2022-08-12T05:36:36.588Z,20.19
2022-08-12T05:41:38.210Z,20.49
2022-08-12T05:46:39.893Z,20.56
2022-08-12T05:51:43.349Z,20.80
2022-08-12T05:56:45.664Z,20.94
2022-08-12T06:02:12.477Z,21.12
2022-08-12T06:08:00.330Z,21.25
2022-08-12T06:12:34.124Z,21.43
2022-08-12T06:17:37.725Z,21.42
2022-08-12T06:22:47.924Z,21.56
2022-08-12T06:28:06.123Z,21.73
2022-08-12T06:33:22.270Z,21.95
2022-08-12T06:38:26.841Z,22.05
2022-08-12T06:43:28.493Z,22.20
2022-08-12T06:48:52.144Z,22.39
2022-08-12T06:53:53.885Z,22.59
2022-08-12T06:58:57.852Z,22.74
2022-08-12T07:04:14.355Z,22.84
2022-08-12T07:10:01.613Z,23.05
2022-08-12T07:14:48.394Z,23.05
2022-08-12T07:19:51.990Z,23.20
2022-08-12T07:25:13.714Z,23.22
2022-08-12T07:30:15.297Z,23.36
2022-08-12T07:35:19.599Z,23.30
2022-08-12T07:40:21.271Z,23.48
2022-08-12T07:45:24.615Z,23.72
2022-08-12T07:50:26.718Z,23.88
2022-08-12T07:55:29.192Z,24.07
2022-08-12T08:00:34.332Z,24.05
2022-08-12T08:05:54.794Z,24.21
2022-08-12T08:11:19.006Z,24.43
2022-08-12T08:16:20.631Z,24.60
2022-08-12T08:21:22.224Z,24.72
2022-08-12T08:26:24.856Z,24.70
2022-08-12T08:31:26.449Z,25.02
2022-08-12T08:36:28.390Z,24.75
2022-08-12T08:42:18.915Z,25.13
2022-08-12T08:47:12.701Z,25.33
2022-08-12T08:52:40.545Z,25.53
2022-08-12T08:57:43.450Z,25.55
2022-08-12T09:02:49.552Z,25.84
2022-08-12T09:08:14.137Z,26.20
2022-08-12T09:14:11.429Z,25.79
2022-08-12T09:18:54.308Z,25.60
2022-08-12T09:24:07.455Z,25.42
2022-08-12T09:29:12.428Z,25.10
2022-08-12T09:34:25.212Z,24.94
2022-08-12T09:40:06.164Z,24.85
2022-08-12T09:45:18.877Z,25.16
2022-08-12T09:50:22.443Z,25.02
2022-08-12T09:56:05.696Z,24.89
2022-08-12T10:00:52.876Z,25.44
2022-08-12T10:06:27.126Z,26.07
2022-08-12T10:12:09.889Z,26.33
2022-08-12T10:16:57.806Z,26.52
2022-08-12T10:21:59.981Z,26.65
2022-08-12T10:27:20.137Z,26.78
2022-08-12T10:32:44.979Z,26.71
2022-08-12T10:38:35.613Z,26.84
2022-08-12T10:43:27.169Z,26.82
2022-08-12T10:48:33.843Z,26.63
2022-08-12T10:53:45.927Z,26.19
2022-08-12T10:58:48.936Z,25.96
2022-08-12T11:04:28.594Z,26.09
2022-08-12T11:09:13.030Z,26.58
2022-08-12T11:14:50.316Z,27.01
2022-08-12T11:19:50.081Z,27.12
2022-08-12T11:24:51.979Z,26.78
2022-08-12T11:30:01.904Z,26.80
2022-08-12T11:35:11.679Z,26.94
2022-08-12T11:40:13.562Z,26.76
2022-08-12T11:45:16.623Z,26.50
2022-08-12T11:50:20.565Z,26.68
2022-08-12T11:55:23.243Z,26.75
2022-08-12T12:05:46.764Z,27.13
2022-08-12T12:10:50.417Z,27.62
2022-08-12T12:15:53.222Z,27.37
2022-08-12T12:20:58.310Z,27.12
2022-08-12T12:26:07.261Z,26.71
2022-08-12T12:31:14.859Z,27.12
2022-08-12T12:36:31.852Z,27.18
2022-08-12T12:42:41.720Z,27.24
2022-08-12T12:46:57.211Z,27.60
2022-08-12T12:52:18.972Z,27.90
2022-08-12T12:57:21.617Z,28.18
2022-08-12T13:02:40.443Z,28.34
2022-08-12T13:07:54.115Z,27.84
2022-08-12T13:12:56.962Z,27.32
2022-08-12T13:18:05.188Z,27.04
2022-08-12T13:23:36.521Z,27.01
2022-08-12T13:28:31.097Z,26.90
2022-08-12T13:34:28.636Z,27.04
2022-08-12T13:38:55.525Z,27.11
2022-08-12T13:43:57.212Z,27.34
2022-08-12T13:49:02.622Z,27.53
2022-08-12T13:54:07.101Z,27.47
2022-08-12T13:59:11.728Z,27.66
2022-08-12T14:04:13.423Z,27.74
2022-08-12T14:09:17.773Z,27.94
2022-08-12T14:14:20.137Z,27.91
2022-08-12T14:19:24.414Z,27.68
2022-08-12T14:24:40.711Z,27.54
2022-08-12T14:30:04.847Z,27.69
2022-08-12T14:35:09.157Z,27.53
2022-08-12T14:40:18.142Z,27.71
2022-08-12T14:45:22.974Z,27.72
2022-08-12T14:50:40.890Z,27.79
2022-08-12T15:01:29.603Z,27.58
2022-08-12T15:06:39.770Z,27.26
2022-08-12T15:12:03.087Z,27.13
2022-08-12T15:17:08.527Z,27.37
2022-08-12T15:22:37.641Z,27.36
2022-08-12T15:28:20.679Z,27.28
2022-08-12T15:32:56.158Z,27.28
2022-08-12T15:38:10.140Z,27.33
2022-08-12T15:43:51.247Z,27.31
2022-08-12T15:48:37.585Z,27.35
2022-08-12T15:53:57.678Z,27.24
2022-08-12T15:58:59.621Z,27.11
2022-08-12T16:04:01.269Z,27.12
2022-08-12T16:09:03.054Z,26.98
2022-08-12T16:14:10.514Z,26.86
2022-08-12T16:20:01.702Z,26.79
2022-08-12T16:24:39.022Z,26.73
2022-08-12T16:29:54.383Z,26.67
2022-08-12T16:34:57.727Z,26.68
2022-08-12T16:40:04.806Z,26.62
2022-08-12T16:45:10.414Z,26.58
2022-08-12T16:50:15.456Z,26.55
2022-08-12T16:55:18.638Z,26.30
2022-08-12T17:00:20.568Z,26.18
2022-08-12T17:05:25.161Z,26.12
2022-08-12T17:10:35.958Z,26.09
2022-08-12T17:15:56.887Z,26.02
2022-08-12T17:21:07.909Z,26.06
2022-08-12T17:26:11.056Z,25.94
2022-08-12T17:31:13.560Z,25.87
2022-08-12T17:36:15.156Z,25.74
2022-08-12T17:41:23.065Z,25.82
2022-08-12T17:46:39.465Z,25.72
2022-08-12T17:51:50.219Z,25.49
2022-08-12T17:56:53.541Z,25.49
2022-08-12T18:02:01.755Z,25.39
2022-08-12T18:07:08.248Z,25.23
2022-08-12T18:12:35.378Z,25.16
2022-08-12T18:17:47.040Z,25.12
2022-08-12T18:22:55.714Z,25.03
2022-08-12T18:28:15.921Z,24.91
2022-08-12T18:33:19.830Z,24.84
2022-08-12T18:38:24.826Z,24.84
2022-08-12T18:43:27.957Z,24.79
2022-08-12T18:48:32.014Z,24.69
2022-08-12T18:54:07.019Z,24.62
2022-08-12T18:59:01.215Z,24.45
2022-08-12T19:04:06.773Z,24.43
2022-08-12T19:09:11.488Z,24.36
2022-08-12T19:14:27.921Z,24.23
2022-08-12T19:19:41.493Z,24.13
2022-08-12T19:25:02.503Z,24.07
2022-08-12T19:30:09.082Z,23.99
2022-08-12T19:40:37.273Z,23.77
2022-08-12T19:45:43.369Z,23.66
2022-08-12T19:50:57.483Z,23.55
2022-08-12T19:55:59.136Z,23.56
2022-08-12T20:01:00.727Z,23.54
2022-08-12T20:06:07.776Z,23.50
2022-08-12T20:12:13.148Z,23.45
2022-08-12T20:21:58.338Z,23.29
2022-08-12T20:27:00.296Z,23.19
2022-08-12T20:32:06.106Z,23.15
2022-08-12T20:37:13.443Z,23.08
2022-08-12T20:42:16.154Z,23.06
2022-08-12T20:47:20.094Z,23.02
2022-08-12T20:52:22.612Z,22.97
2022-08-12T20:57:37.411Z,22.88
2022-08-12T21:02:43.645Z,22.85
2022-08-12T21:07:51.493Z,22.83
2022-08-12T21:12:54.106Z,22.90
2022-08-12T21:18:11.321Z,22.87
2022-08-12T21:23:30.790Z,22.87
2022-08-12T21:28:38.545Z,22.86
2022-08-12T21:33:58.769Z,22.88
2022-08-12T21:39:19.120Z,22.77
2022-08-12T21:45:44.240Z,22.67
2022-08-12T21:49:55.174Z,22.78
2022-08-12T21:54:59.651Z,22.79
2022-08-12T22:00:01.232Z,22.79
2022-08-12T22:05:23.192Z,22.72
2022-08-12T22:10:28.313Z,22.68
2022-08-12T22:15:30.917Z,22.67
2022-08-12T22:20:32.743Z,22.62
2022-08-12T22:25:34.367Z,22.51
2022-08-12T22:31:00.362Z,22.55
2022-08-12T22:36:03.120Z,22.37
2022-08-12T22:41:28.245Z,22.37
2022-08-12T22:46:52.501Z,22.21
2022-08-12T22:52:00.687Z,22.25
2022-08-12T22:57:12.360Z,22.20
2022-08-12T23:02:14.317Z,22.20
2022-08-12T23:07:16.261Z,22.12
2022-08-12T23:12:46.505Z,22.06
2022-08-12T23:17:48.694Z,22.00
2022-08-12T23:22:56.100Z,21.91
2022-08-12T23:28:32.470Z,21.90
2022-08-12T23:34:02.376Z,21.81
2022-08-12T23:39:01.645Z,21.69
2022-08-12T23:44:06.875Z,21.64
2022-08-12T23:49:13.792Z,21.59
2022-08-12T23:54:33.169Z,21.61
2022-08-12T23:59:43.651Z,21.62
